sensor_id;sensor_type;location;lat;lon;timestamp;pressure;altitude;pressure_sealevel;temperature;humidity
50774;BME280;36745;48.544;8.918;2022-09-09T00:02:28;97046.22;;;13.59;85.35
50774;BME280;36745;48.544;8.918;2022-09-09T00:05:35;97036.69;;;13.60;85.83
50774;BME280;36745;48.544;8.918;2022-09-09T00:08:55;97031.91;;;13.61;86.55
50774;BME280;36745;48.544;8.918;2022-09-09T00:12:09;97029.25;;;13.66;86.52
50774;BME280;36745;48.544;8.918;2022-09-09T00:15:17;97029.88;;;13.70;85.92
50774;BME280;36745;48.544;8.918;2022-09-09T00:18:52;97029.25;;;13.66;86.88
50774;BME280;36745;48.544;8.918;2022-09-09T00:25:19;97034.47;;;13.73;86.55
50774;BME280;36745;48.544;8.918;2022-09-09T00:28:27;97034.47;;;13.73;86.33
50774;BME280;36745;48.544;8.918;2022-09-09T00:31:31;97033.56;;;13.67;87.15
50774;BME280;36745;48.544;8.918;2022-09-09T00:34:36;97030.81;;;13.67;86.67
50774;BME280;36745;48.544;8.918;2022-09-09T00:37:39;97031.75;;;13.64;87.18
50774;BME280;36745;48.544;8.918;2022-09-09T00:41:11;97023.75;;;13.57;87.10
50774;BME280;36745;48.544;8.918;2022-09-09T00:44:25;97029.63;;;13.59;87.36
50774;BME280;36745;48.544;8.918;2022-09-09T00:47:58;97027.75;;;13.56;87.82
50774;BME280;36745;48.544;8.918;2022-09-09T00:51:10;97021.94;;;13.54;87.70
50774;BME280;36745;48.544;8.918;2022-09-09T00:57:38;97029.34;;;13.48;87.74
50774;BME280;36745;48.544;8.918;2022-09-09T01:00:41;97031.47;;;13.53;87.77
50774;BME280;36745;48.544;8.918;2022-09-09T01:03:55;97031.47;;;13.53;87.84
50774;BME280;36745;48.544;8.918;2022-09-09T01:07:17;97028.72;;;13.53;88.21
50774;BME280;36745;48.544;8.918;2022-09-09T01:10:43;97029.94;;;13.52;88.08
50774;BME280;36745;48.544;8.918;2022-09-09T01:13:53;97030.56;;;13.47;88.02
50774;BME280;36745;48.544;8.918;2022-09-09T01:17:00;97013.66;;;13.45;87.82
50774;BME280;36745;48.544;8.918;2022-09-09T01:20:10;97024.91;;;13.41;88.28
50774;BME280;36745;48.544;8.918;2022-09-09T01:26:33;97023.25;;;13.26;88.55
50774;BME280;36745;48.544;8.918;2022-09-09T01:29:35;97031.25;;;13.24;88.89
50774;BME280;36745;48.544;8.918;2022-09-09T01:32:50;97044.47;;;13.20;88.41
50774;BME280;36745;48.544;8.918;2022-09-09T01:35:57;97051.88;;;13.14;88.37
50774;BME280;36745;48.544;8.918;2022-09-09T01:39:01;97053.25;;;13.18;88.42
50774;BME280;36745;48.544;8.918;2022-09-09T01:42:04;97058.94;;;13.15;88.66
50774;BME280;36745;48.544;8.918;2022-09-09T01:45:07;97049.25;;;13.10;88.96
50774;BME280;36745;48.544;8.918;2022-09-09T01:48:08;97062.00;;;13.08;89.24
50774;BME280;36745;48.544;8.918;2022-09-09T01:51:09;97050.31;;;13.03;89.12
50774;BME280;36745;48.544;8.918;2022-09-09T01:54:13;97047.88;;;13.06;89.28
50774;BME280;36745;48.544;8.918;2022-09-09T01:57:33;97046.94;;;13.09;89.67
50774;BME280;36745;48.544;8.918;2022-09-09T02:00:44;97036.50;;;13.13;89.49
50774;BME280;36745;48.544;8.918;2022-09-09T02:03:55;97042.34;;;13.15;89.53
50774;BME280;36745;48.544;8.918;2022-09-09T02:06:57;97045.38;;;13.08;88.45
50774;BME280;36745;48.544;8.918;2022-09-09T02:10:25;97041.69;;;13.01;89.34
50774;BME280;36745;48.544;8.918;2022-09-09T02:13:32;97046.31;;;13.04;89.54
50774;BME280;36745;48.544;8.918;2022-09-09T02:16:40;97035.72;;;13.12;89.27
50774;BME280;36745;48.544;8.918;2022-09-09T02:19:47;97035.84;;;13.09;89.26
50774;BME280;36745;48.544;8.918;2022-09-09T02:22:50;97030.97;;;13.13;88.55
50774;BME280;36745;48.544;8.918;2022-09-09T02:25:53;97044.78;;;13.03;89.28
50774;BME280;36745;48.544;8.918;2022-09-09T02:28:57;97049.09;;;13.04;89.55
50774;BME280;36745;48.544;8.918;2022-09-09T02:32:01;97058.94;;;13.06;89.28
50774;BME280;36745;48.544;8.918;2022-09-09T02:35:11;97054.31;;;13.02;89.56
50774;BME280;36745;48.544;8.918;2022-09-09T02:38:13;97041.88;;;12.98;89.81
50774;BME280;36745;48.544;8.918;2022-09-09T02:41:19;97047.41;;;12.98;90.03
50774;BME280;36745;48.544;8.918;2022-09-09T02:44:22;97043.56;;;12.95;90.16
50774;BME280;36745;48.544;8.918;2022-09-09T02:47:35;97045.41;;;12.98;90.06
50774;BME280;36745;48.544;8.918;2022-09-09T02:50:47;97044.00;;;13.03;90.13
50774;BME280;36745;48.544;8.918;2022-09-09T02:57:19;97034.94;;;13.02;90.04
50774;BME280;36745;48.544;8.918;2022-09-09T03:00:26;97038.03;;;13.04;90.14
50774;BME280;36745;48.544;8.918;2022-09-09T03:03:27;97040.63;;;13.08;90.25
50774;BME280;36745;48.544;8.918;2022-09-09T03:06:29;97043.88;;;13.16;90.05
50774;BME280;36745;48.544;8.918;2022-09-09T03:09:33;97040.94;;;13.19;89.68
50774;BME280;36745;48.544;8.918;2022-09-09T03:12:34;97050.00;;;13.20;89.67
50774;BME280;36745;48.544;8.918;2022-09-09T03:15:38;97040.16;;;13.19;89.81
50774;BME280;36745;48.544;8.918;2022-09-09T03:18:40;97043.88;;;13.16;90.19
50774;BME280;36745;48.544;8.918;2022-09-09T03:21:41;97039.25;;;13.22;89.79
50774;BME280;36745;48.544;8.918;2022-09-09T03:24:42;97036.50;;;13.22;89.95
50774;BME280;36745;48.544;8.918;2022-09-09T03:27:43;97039.41;;;13.18;90.38
50774;BME280;36745;48.544;8.918;2022-09-09T03:30:44;97032.50;;;13.14;90.75
50774;BME280;36745;48.544;8.918;2022-09-09T03:33:45;97027.56;;;13.18;90.91
50774;BME280;36745;48.544;8.918;2022-09-09T03:36:46;97033.88;;;13.18;90.88
50774;BME280;36745;48.544;8.918;2022-09-09T03:39:49;97042.63;;;13.26;90.66
50774;BME280;36745;48.544;8.918;2022-09-09T03:42:50;97046.75;;;13.30;90.64
50774;BME280;36745;48.544;8.918;2022-09-09T03:45:51;97048.13;;;13.35;90.31
50774;BME280;36745;48.544;8.918;2022-09-09T03:48:53;97046.00;;;13.30;90.45
50774;BME280;36745;48.544;8.918;2022-09-09T03:51:55;97040.47;;;13.30;90.90
50774;BME280;36745;48.544;8.918;2022-09-09T03:54:57;97047.06;;;13.32;90.83
50774;BME280;36745;48.544;8.918;2022-09-09T03:58:01;97050.16;;;13.25;91.04
50774;BME280;36745;48.544;8.918;2022-09-09T04:01:08;97045.72;;;13.28;91.13
50774;BME280;36745;48.544;8.918;2022-09-09T04:04:09;97042.16;;;13.27;91.08
50774;BME280;36745;48.544;8.918;2022-09-09T04:07:10;97048.16;;;13.26;91.07
50774;BME280;36745;48.544;8.918;2022-09-09T04:10:12;97049.72;;;13.27;91.01
50774;BME280;36745;48.544;8.918;2022-09-09T04:13:15;97049.38;;;13.25;91.28
50774;BME280;36745;48.544;8.918;2022-09-09T04:16:17;97046.31;;;13.23;90.92
50774;BME280;36745;48.544;8.918;2022-09-09T04:19:21;97052.00;;;13.19;91.42
50774;BME280;36745;48.544;8.918;2022-09-09T04:22:22;97050.00;;;13.20;91.71
50774;BME280;36745;48.544;8.918;2022-09-09T04:25:23;97048.63;;;13.24;91.32
50774;BME280;36745;48.544;8.918;2022-09-09T04:28:27;97053.38;;;13.24;91.75
50774;BME280;36745;48.544;8.918;2022-09-09T04:31:29;97051.34;;;13.33;91.53
50774;BME280;36745;48.544;8.918;2022-09-09T04:34:30;97046.31;;;13.32;91.94
50774;BME280;36745;48.544;8.918;2022-09-09T04:37:31;97048.44;;;13.37;91.72
50774;BME280;36745;48.544;8.918;2022-09-09T04:40:32;97049.84;;;13.32;91.71
50774;BME280;36745;48.544;8.918;2022-09-09T04:43:34;97044.44;;;13.29;91.84
50774;BME280;36745;48.544;8.918;2022-09-09T04:46:35;97044.78;;;13.22;92.01
50774;BME280;36745;48.544;8.918;2022-09-09T04:49:36;97052.16;;;13.25;92.13
50774;BME280;36745;48.544;8.918;2022-09-09T04:52:37;97054.75;;;13.28;91.80
50774;BME280;36745;48.544;8.918;2022-09-09T04:55:38;97048.75;;;13.30;91.59
50774;BME280;36745;48.544;8.918;2022-09-09T04:58:39;97059.53;;;13.19;91.62
50774;BME280;36745;48.544;8.918;2022-09-09T05:01:43;97060.78;;;13.18;92.07
50774;BME280;36745;48.544;8.918;2022-09-09T05:04:44;97060.78;;;13.18;92.06
50774;BME280;36745;48.544;8.918;2022-09-09T05:07:45;97072.94;;;13.20;92.14
50774;BME280;36745;48.544;8.918;2022-09-09T05:10:46;97061.41;;;13.22;91.51
50774;BME280;36745;48.544;8.918;2022-09-09T05:13:47;97065.25;;;13.15;92.06
50774;BME280;36745;48.544;8.918;2022-09-09T05:16:48;97066.03;;;13.16;92.20
50774;BME280;36745;48.544;8.918;2022-09-09T05:19:50;97071.53;;;13.25;92.24
50774;BME280;36745;48.544;8.918;2022-09-09T05:22:55;97065.69;;;13.23;92.36
50774;BME280;36745;48.544;8.918;2022-09-09T05:25:57;97074.00;;;13.32;92.14
50774;BME280;36745;48.544;8.918;2022-09-09T05:28:59;97084.44;;;13.37;91.93
50774;BME280;36745;48.544;8.918;2022-09-09T05:32:01;97083.84;;;13.33;91.93
50774;BME280;36745;48.544;8.918;2022-09-09T05:35:02;97082.59;;;13.34;92.04
50774;BME280;36745;48.544;8.918;2022-09-09T05:38:03;97083.66;;;13.36;92.56
50774;BME280;36745;48.544;8.918;2022-09-09T05:41:05;97077.06;;;13.43;92.78
50774;BME280;36745;48.544;8.918;2022-09-09T05:44:06;97086.09;;;13.53;92.43
50774;BME280;36745;48.544;8.918;2022-09-09T05:47:07;97081.00;;;13.51;92.71
50774;BME280;36745;48.544;8.918;2022-09-09T05:50:09;97077.63;;;13.56;92.84
50774;BME280;36745;48.544;8.918;2022-09-09T05:53:10;97079.28;;;13.63;92.92
50774;BME280;36745;48.544;8.918;2022-09-09T05:56:16;97077.25;;;13.72;92.72
50774;BME280;36745;48.544;8.918;2022-09-09T05:59:18;97087.41;;;13.75;92.91
50774;BME280;36745;48.544;8.918;2022-09-09T06:02:19;97093.56;;;13.79;93.09
50774;BME280;36745;48.544;8.918;2022-09-09T06:05:20;97094.00;;;13.87;92.87
50774;BME280;36745;48.544;8.918;2022-09-09T06:08:23;97087.06;;;13.92;92.70
50774;BME280;36745;48.544;8.918;2022-09-09T06:11:30;97083.78;;;14.02;92.41
50774;BME280;36745;48.544;8.918;2022-09-09T06:14:36;97086.06;;;14.04;92.19
50774;BME280;36745;48.544;8.918;2022-09-09T06:17:37;97079.28;;;14.05;92.60
50774;BME280;36745;48.544;8.918;2022-09-09T06:20:39;97088.50;;;14.11;92.66
50774;BME280;36745;48.544;8.918;2022-09-09T06:23:40;97094.00;;;14.20;92.82
50774;BME280;36745;48.544;8.918;2022-09-09T06:26:41;97086.28;;;14.24;92.74
50774;BME280;36745;48.544;8.918;2022-09-09T06:29:42;97079.91;;;14.33;92.84
50774;BME280;36745;48.544;8.918;2022-09-09T06:32:43;97090.22;;;14.41;92.64
50774;BME280;36745;48.544;8.918;2022-09-09T06:35:51;97084.97;;;14.43;92.77
50774;BME280;36745;48.544;8.918;2022-09-09T06:38:54;97085.28;;;14.45;92.64
50774;BME280;36745;48.544;8.918;2022-09-09T06:41:55;97096.94;;;14.49;92.51
50774;BME280;36745;48.544;8.918;2022-09-09T06:44:59;97082.13;;;14.52;92.15
50774;BME280;36745;48.544;8.918;2022-09-09T06:48:00;97091.72;;;14.51;92.43
50774;BME280;36745;48.544;8.918;2022-09-09T06:51:05;97097.78;;;14.64;93.00
50774;BME280;36745;48.544;8.918;2022-09-09T06:54:07;97093.03;;;14.80;93.05
50774;BME280;36745;48.544;8.918;2022-09-09T06:57:08;97092.03;;;14.92;92.85
50774;BME280;36745;48.544;8.918;2022-09-09T07:00:09;97092.13;;;14.97;92.72
50774;BME280;36745;48.544;8.918;2022-09-09T07:03:11;97089.78;;;15.05;92.56
50774;BME280;36745;48.544;8.918;2022-09-09T07:06:23;97086.13;;;15.13;92.75
50774;BME280;36745;48.544;8.918;2022-09-09T07:09:24;97091.13;;;15.24;92.60
50774;BME280;36745;48.544;8.918;2022-09-09T07:12:25;97086.75;;;15.32;92.51
50774;BME280;36745;48.544;8.918;2022-09-09T07:15:26;97087.31;;;15.36;92.14
50774;BME280;36745;48.544;8.918;2022-09-09T07:18:27;97091.75;;;15.58;92.36
50774;BME280;36745;48.544;8.918;2022-09-09T07:21:29;97089.94;;;15.69;91.41
50774;BME280;36745;48.544;8.918;2022-09-09T07:24:31;97086.84;;;15.82;91.81
50774;BME280;36745;48.544;8.918;2022-09-09T07:27:32;97085.97;;;16.05;91.72
50774;BME280;36745;48.544;8.918;2022-09-09T07:30:33;97085.69;;;16.38;91.85
50774;BME280;36745;48.544;8.918;2022-09-09T07:33:34;97090.25;;;16.56;90.82
50774;BME280;36745;48.544;8.918;2022-09-09T07:36:40;97091.97;;;16.68;89.98
50774;BME280;36745;48.544;8.918;2022-09-09T07:39:42;97095.69;;;16.65;88.22
50774;BME280;36745;48.544;8.918;2022-09-09T07:42:43;97103.09;;;16.68;88.91
50774;BME280;36745;48.544;8.918;2022-09-09T07:45:44;97096.59;;;16.76;88.84
50774;BME280;36745;48.544;8.918;2022-09-09T07:48:50;97099.06;;;16.89;88.07
50774;BME280;36745;48.544;8.918;2022-09-09T07:51:52;97096.66;;;17.02;88.28
50774;BME280;36745;48.544;8.918;2022-09-09T07:54:53;97081.47;;;17.24;87.74
50774;BME280;36745;48.544;8.918;2022-09-09T07:57:55;97095.03;;;17.36;88.08
50774;BME280;36745;48.544;8.918;2022-09-09T08:00:56;97100.84;;;17.38;86.82
50774;BME280;36745;48.544;8.918;2022-09-09T08:04:05;97106.81;;;17.51;86.19
50774;BME280;36745;48.544;8.918;2022-09-09T08:07:07;97104.09;;;17.57;84.67
50774;BME280;36745;48.544;8.918;2022-09-09T08:10:08;97107.25;;;17.65;83.17
50774;BME280;36745;48.544;8.918;2022-09-09T08:13:09;97112.50;;;17.88;83.72
50774;BME280;36745;48.544;8.918;2022-09-09T08:16:13;97115.41;;;17.99;82.68
50774;BME280;36745;48.544;8.918;2022-09-09T08:19:15;97107.34;;;18.07;81.75
50774;BME280;36745;48.544;8.918;2022-09-09T08:22:16;97104.28;;;18.05;81.42
50774;BME280;36745;48.544;8.918;2022-09-09T08:25:17;97106.13;;;18.14;82.82
50774;BME280;36745;48.544;8.918;2022-09-09T08:28:18;97112.97;;;18.13;81.94
50774;BME280;36745;48.544;8.918;2022-09-09T08:31:21;97109.91;;;18.11;81.63
50774;BME280;36745;48.544;8.918;2022-09-09T08:34:24;97118.00;;;18.09;81.74
50774;BME280;36745;48.544;8.918;2022-09-09T08:37:27;97113.09;;;18.29;81.88
50774;BME280;36745;48.544;8.918;2022-09-09T08:40:31;97107.91;;;18.54;80.81
50774;BME280;36745;48.544;8.918;2022-09-09T08:43:35;97107.84;;;18.85;81.80
50774;BME280;36745;48.544;8.918;2022-09-09T08:46:46;97116.06;;;19.00;80.17
50774;BME280;36745;48.544;8.918;2022-09-09T08:56:17;97109.31;;;19.34;78.02
50774;BME280;36745;48.544;8.918;2022-09-09T08:59:19;97117.78;;;19.62;78.75
50774;BME280;36745;48.544;8.918;2022-09-09T09:09:46;97096.44;;;19.92;74.85
50774;BME280;36745;48.544;8.918;2022-09-09T09:12:58;97096.72;;;20.11;74.00
50774;BME280;36745;48.544;8.918;2022-09-09T09:19:32;97091.38;;;20.02;73.43
50774;BME280;36745;48.544;8.918;2022-09-09T09:22:51;97078.16;;;20.02;73.09
50774;BME280;36745;48.544;8.918;2022-09-09T09:25:58;97075.09;;;19.89;72.05
50774;BME280;36745;48.544;8.918;2022-09-09T09:29:09;97078.66;;;20.12;72.76
50774;BME280;36745;48.544;8.918;2022-09-09T09:32:14;97072.53;;;20.13;71.33
50774;BME280;36745;48.544;8.918;2022-09-09T09:35:17;97074.31;;;20.00;69.51
50774;BME280;36745;48.544;8.918;2022-09-09T09:38:20;97068.72;;;20.33;70.15
50774;BME280;36745;48.544;8.918;2022-09-09T09:41:41;97063.69;;;20.89;68.93
50774;BME280;36745;48.544;8.918;2022-09-09T09:44:43;97078.28;;;20.82;66.35
50774;BME280;36745;48.544;8.918;2022-09-09T09:47:44;97065.28;;;20.74;64.61
50774;BME280;36745;48.544;8.918;2022-09-09T09:53:51;97047.13;;;20.97;63.76
50774;BME280;36745;48.544;8.918;2022-09-09T09:56:54;97044.19;;;20.73;60.78
50774;BME280;36745;48.544;8.918;2022-09-09T10:03:18;97044.00;;;21.06;59.39
50774;BME280;36745;48.544;8.918;2022-09-09T10:06:34;97045.25;;;20.53;55.67
50774;BME280;36745;48.544;8.918;2022-09-09T10:09:38;97044.19;;;20.73;58.78
50774;BME280;36745;48.544;8.918;2022-09-09T10:12:51;97044.00;;;21.06;56.32
50774;BME280;36745;48.544;8.918;2022-09-09T10:19:34;97043.84;;;20.93;55.79
50774;BME280;36745;48.544;8.918;2022-09-09T10:22:36;97046.28;;;20.56;55.55
50774;BME280;36745;48.544;8.918;2022-09-09T10:26:23;97042.69;;;20.61;56.58
50774;BME280;36745;48.544;8.918;2022-09-09T10:29:53;97038.31;;;20.71;55.53
50774;BME280;36745;48.544;8.918;2022-09-09T10:33:12;97038.59;;;20.73;54.58
50774;BME280;36745;48.544;8.918;2022-09-09T10:36:20;97044.75;;;20.55;54.31
50774;BME280;36745;48.544;8.918;2022-09-09T10:39:35;97036.41;;;20.32;54.64
50774;BME280;36745;48.544;8.918;2022-09-09T10:42:37;97049.88;;;20.23;54.79
50774;BME280;36745;48.544;8.918;2022-09-09T10:52:14;97052.19;;;20.07;54.80
50774;BME280;36745;48.544;8.918;2022-09-09T10:55:26;97065.66;;;20.42;54.22
50774;BME280;36745;48.544;8.918;2022-09-09T10:58:37;97084.22;;;20.57;54.95
50774;BME280;36745;48.544;8.918;2022-09-09T11:01:49;97089.78;;;20.62;56.21
50774;BME280;36745;48.544;8.918;2022-09-09T11:08:11;97115.03;;;20.12;57.27
50774;BME280;36745;48.544;8.918;2022-09-09T11:11:19;97123.13;;;19.77;58.06
50774;BME280;36745;48.544;8.918;2022-09-09T11:17:52;97117.91;;;19.25;58.79
50774;BME280;36745;48.544;8.918;2022-09-09T11:20:59;97103.16;;;19.13;58.80
50774;BME280;36745;48.544;8.918;2022-09-09T11:31:30;97104.19;;;19.16;59.00
50774;BME280;36745;48.544;8.918;2022-09-09T11:34:53;97105.97;;;19.19;58.95
50774;BME280;36745;48.544;8.918;2022-09-09T11:38:16;97098.13;;;19.34;59.21
50774;BME280;36745;48.544;8.918;2022-09-09T11:41:20;97091.34;;;19.57;59.24
50774;BME280;36745;48.544;8.918;2022-09-09T11:44:29;97096.44;;;19.81;58.46
50774;BME280;36745;48.544;8.918;2022-09-09T11:47:31;97091.63;;;20.04;57.64
50774;BME280;36745;48.544;8.918;2022-09-09T11:50:36;97082.72;;;20.33;57.99
50774;BME280;36745;48.544;8.918;2022-09-09T11:53:52;97077.22;;;20.91;57.83
50774;BME280;36745;48.544;8.918;2022-09-09T11:56:53;97077.94;;;21.03;57.31
50774;BME280;36745;48.544;8.918;2022-09-09T11:59:54;97072.03;;;21.06;56.75
50774;BME280;36745;48.544;8.918;2022-09-09T12:02:55;97082.53;;;20.94;56.47
50774;BME280;36745;48.544;8.918;2022-09-09T12:05:57;97095.59;;;20.81;56.46
50774;BME280;36745;48.544;8.918;2022-09-09T12:09:15;97094.09;;;20.69;56.60
50774;BME280;36745;48.544;8.918;2022-09-09T12:12:23;97091.31;;;20.52;57.07
50774;BME280;36745;48.544;8.918;2022-09-09T12:15:27;97089.56;;;20.55;57.35
50774;BME280;36745;48.544;8.918;2022-09-09T12:18:37;97088.50;;;20.58;57.43
50774;BME280;36745;48.544;8.918;2022-09-09T12:21:46;97085.50;;;20.50;57.01
50774;BME280;36745;48.544;8.918;2022-09-09T12:31:34;97082.94;;;19.46;55.83
50774;BME280;36745;48.544;8.918;2022-09-09T12:37:47;97071.44;;;19.39;56.37
50774;BME280;36745;48.544;8.918;2022-09-09T12:40:55;97070.69;;;19.27;56.56
50774;BME280;36745;48.544;8.918;2022-09-09T12:44:08;97071.69;;;19.35;56.43
50774;BME280;36745;48.544;8.918;2022-09-09T12:47:10;97067.38;;;19.28;56.93
50774;BME280;36745;48.544;8.918;2022-09-09T12:50:35;97052.91;;;19.41;57.22
50774;BME280;36745;48.544;8.918;2022-09-09T12:53:37;97041.03;;;19.68;57.22
50774;BME280;36745;48.544;8.918;2022-09-09T12:56:45;97049.13;;;20.11;57.27
50774;BME280;36745;48.544;8.918;2022-09-09T12:59:47;97054.44;;;20.42;56.69
50774;BME280;36745;48.544;8.918;2022-09-09T13:02:53;97038.63;;;20.56;55.10
50774;BME280;36745;48.544;8.918;2022-09-09T13:05:58;97053.13;;;20.60;55.22
50774;BME280;36745;48.544;8.918;2022-09-09T13:09:03;97046.81;;;20.37;54.87
50774;BME280;36745;48.544;8.918;2022-09-09T13:12:06;97052.16;;;20.30;54.64
50774;BME280;36745;48.544;8.918;2022-09-09T13:15:21;97040.75;;;20.11;53.76
50774;BME280;36745;48.544;8.918;2022-09-09T13:18:25;97038.22;;;20.02;53.89
50774;BME280;36745;48.544;8.918;2022-09-09T13:21:36;97038.44;;;20.21;54.25
50774;BME280;36745;48.544;8.918;2022-09-09T13:24:37;97031.81;;;20.40;54.32
50774;BME280;36745;48.544;8.918;2022-09-09T13:27:41;97028.41;;;20.64;54.29
50774;BME280;36745;48.544;8.918;2022-09-09T13:30:43;97028.41;;;20.70;53.78
50774;BME280;36745;48.544;8.918;2022-09-09T13:33:45;97029.41;;;20.78;53.09
50774;BME280;36745;48.544;8.918;2022-09-09T13:36:47;97025.59;;;20.70;52.79
50774;BME280;36745;48.544;8.918;2022-09-09T13:39:53;97013.56;;;20.80;52.89
50774;BME280;36745;48.544;8.918;2022-09-09T13:42:56;97014.84;;;20.79;52.38
50774;BME280;36745;48.544;8.918;2022-09-09T13:46:00;97011.19;;;20.95;52.30
50774;BME280;36745;48.544;8.918;2022-09-09T13:49:19;97010.94;;;20.99;51.91
50774;BME280;36745;48.544;8.918;2022-09-09T13:52:21;97006.16;;;20.88;51.14
50774;BME280;36745;48.544;8.918;2022-09-09T13:55:24;97002.31;;;20.91;51.29
50774;BME280;36745;48.544;8.918;2022-09-09T13:58:25;96992.91;;;20.89;50.30
50774;BME280;36745;48.544;8.918;2022-09-09T14:01:27;97000.28;;;20.92;51.16
50774;BME280;36745;48.544;8.918;2022-09-09T14:04:28;96995.56;;;21.11;51.23
50774;BME280;36745;48.544;8.918;2022-09-09T14:07:29;97000.66;;;21.18;50.58
50774;BME280;36745;48.544;8.918;2022-09-09T14:10:33;97001.22;;;21.06;49.71
50774;BME280;36745;48.544;8.918;2022-09-09T14:13:37;96997.41;;;21.03;49.62
50774;BME280;36745;48.544;8.918;2022-09-09T14:16:38;97003.50;;;21.07;49.03
50774;BME280;36745;48.544;8.918;2022-09-09T14:19:39;96993.09;;;21.02;49.43
50774;BME280;36745;48.544;8.918;2022-09-09T14:22:40;96998.38;;;21.17;49.24
50774;BME280;36745;48.544;8.918;2022-09-09T14:25:44;96989.16;;;21.22;48.90
50774;BME280;36745;48.544;8.918;2022-09-09T14:28:45;96987.13;;;21.22;48.56
50774;BME280;36745;48.544;8.918;2022-09-09T14:31:46;96994.50;;;21.25;48.65
50774;BME280;36745;48.544;8.918;2022-09-09T14:34:47;96995.56;;;21.11;48.43
50774;BME280;36745;48.544;8.918;2022-09-09T14:37:51;96999.16;;;21.06;48.42
50774;BME280;36745;48.544;8.918;2022-09-09T14:40:52;96998.97;;;20.99;48.00
50774;BME280;36745;48.544;8.918;2022-09-09T14:43:53;96996.63;;;21.08;48.10
50774;BME280;36745;48.544;8.918;2022-09-09T14:46:54;97001.66;;;21.26;48.37
50774;BME280;36745;48.544;8.918;2022-09-09T14:49:55;97005.47;;;21.23;47.91
50774;BME280;36745;48.544;8.918;2022-09-09T14:52:56;96995.34;;;21.15;47.98
50774;BME280;36745;48.544;8.918;2022-09-09T14:56:16;96999.91;;;21.12;48.05
50774;BME280;36745;48.544;8.918;2022-09-09T14:59:18;96999.16;;;21.06;48.23
50774;BME280;36745;48.544;8.918;2022-09-09T15:02:19;96999.75;;;20.99;48.09
50774;BME280;36745;48.544;8.918;2022-09-09T15:05:20;97015.50;;;21.02;47.88
50774;BME280;36745;48.544;8.918;2022-09-09T15:08:21;97009.97;;;20.91;47.17
50774;BME280;36745;48.544;8.918;2022-09-09T15:11:22;97021.69;;;20.84;47.24
50774;BME280;36745;48.544;8.918;2022-09-09T15:14:25;97011.59;;;20.70;47.14
50774;BME280;36745;48.544;8.918;2022-09-09T15:17:26;97006.81;;;20.53;47.17
50774;BME280;36745;48.544;8.918;2022-09-09T15:20:27;97005.56;;;20.49;47.54
50774;BME280;36745;48.544;8.918;2022-09-09T15:23:31;97010.66;;;20.50;47.64
50774;BME280;36745;48.544;8.918;2022-09-09T15:26:32;97001.75;;;20.46;47.22
50774;BME280;36745;48.544;8.918;2022-09-09T15:29:33;97000.25;;;20.45;47.33
50774;BME280;36745;48.544;8.918;2022-09-09T15:32:34;96999.25;;;20.15;46.55
50774;BME280;36745;48.544;8.918;2022-09-09T15:35:35;96997.78;;;19.86;46.36
50774;BME280;36745;48.544;8.918;2022-09-09T15:38:36;97005.66;;;19.77;47.00
50774;BME280;36745;48.544;8.918;2022-09-09T15:41:40;97003.91;;;19.68;46.65
50774;BME280;36745;48.544;8.918;2022-09-09T15:44:41;97003.13;;;19.56;46.89
50774;BME280;36745;48.544;8.918;2022-09-09T15:47:47;97006.19;;;19.58;47.33
50774;BME280;36745;48.544;8.918;2022-09-09T15:51:00;97015.34;;;19.53;47.15
50774;BME280;36745;48.544;8.918;2022-09-09T15:54:03;97020.19;;;19.58;47.44
50774;BME280;36745;48.544;8.918;2022-09-09T15:57:05;97018.38;;;19.66;47.55
50774;BME280;36745;48.544;8.918;2022-09-09T16:00:07;97016.34;;;19.73;47.59
50774;BME280;36745;48.544;8.918;2022-09-09T16:03:12;97022.44;;;19.88;47.98
50774;BME280;36745;48.544;8.918;2022-09-09T16:06:14;97041.03;;;19.96;48.14
50774;BME280;36745;48.544;8.918;2022-09-09T16:09:15;97037.94;;;20.05;48.49
50774;BME280;36745;48.544;8.918;2022-09-09T16:12:19;97040.22;;;20.18;48.59
50774;BME280;36745;48.544;8.918;2022-09-09T16:15:20;97038.19;;;20.24;48.73
50774;BME280;36745;48.544;8.918;2022-09-09T16:18:26;97034.88;;;20.15;48.73
50774;BME280;36745;48.544;8.918;2022-09-09T16:21:30;97030.06;;;20.04;48.69
50774;BME280;36745;48.544;8.918;2022-09-09T16:24:31;97038.47;;;19.87;49.20
50774;BME280;36745;48.544;8.918;2022-09-09T16:27:32;97046.63;;;19.85;49.43
50774;BME280;36745;48.544;8.918;2022-09-09T16:30:33;97067.72;;;19.81;49.61
50774;BME280;36745;48.544;8.918;2022-09-09T16:33:34;97057.53;;;19.78;49.66
50774;BME280;36745;48.544;8.918;2022-09-09T16:36:37;97059.06;;;19.79;49.71
50774;BME280;36745;48.544;8.918;2022-09-09T16:39:39;97057.81;;;19.74;49.51
50774;BME280;36745;48.544;8.918;2022-09-09T16:42:40;97059.56;;;19.72;49.64
50774;BME280;36745;48.544;8.918;2022-09-09T16:46:28;97064.66;;;19.56;49.93
50774;BME280;36745;48.544;8.918;2022-09-09T16:49:50;97066.19;;;19.57;50.07
50774;BME280;36745;48.544;8.918;2022-09-09T16:53:11;97079.66;;;19.59;50.20
50774;BME280;36745;48.544;8.918;2022-09-09T16:56:37;97086.50;;;19.52;50.83
50774;BME280;36745;48.544;8.918;2022-09-09T16:59:58;97077.34;;;19.46;50.69
50774;BME280;36745;48.544;8.918;2022-09-09T17:03:20;97078.81;;;19.36;51.05
50774;BME280;36745;48.544;8.918;2022-09-09T17:06:45;97076.50;;;19.29;51.62
50774;BME280;36745;48.544;8.918;2022-09-09T17:10:07;97074.47;;;19.24;52.20
50774;BME280;36745;48.544;8.918;2022-09-09T17:13:28;97068.38;;;19.20;52.49
50774;BME280;36745;48.544;8.918;2022-09-09T17:16:50;97074.94;;;19.11;52.49
50774;BME280;36745;48.544;8.918;2022-09-09T17:20:12;97071.66;;;19.13;52.50
50774;BME280;36745;48.544;8.918;2022-09-09T17:23:34;97083.59;;;19.13;52.39
50774;BME280;36745;48.544;8.918;2022-09-09T17:26:58;97091.94;;;19.08;52.90
50774;BME280;36745;48.544;8.918;2022-09-09T17:30:21;97090.66;;;19.03;53.02
50774;BME280;36745;48.544;8.918;2022-09-09T17:33:44;97096.72;;;18.96;53.12
50774;BME280;36745;48.544;8.918;2022-09-09T17:37:06;97092.41;;;18.95;53.42